Time;durP1;ratioP1;P1;durP2;ratioP2;P2;SDS_P1;SDS_P2;PMS_P1;PMS_P2;Temp;Humidity;BMP_temperature;BMP_pressure;BME280_temperature;BME280_humidity;BME280_pressure;Samples;Min_cycle;Max_cycle;Signal;HPM_P1;HPM_P2
2022/09/13 00:01:03;;;;;;;3.07;1.23;;;;;;;13.67;74.82;98263.72;4981584;28;20313;-50
2022/09/13 00:03:55;;;;;;;2.90;1.20;;;;;;;13.68;74.24;98262.72;4975488;28;20268;-50
2022/09/13 00:06:47;;;;;;;1.83;0.93;;;;;;;13.59;75.02;98254.16;4950417;23;20230;-50
2022/09/13 00:09:39;;;;;;;1.10;0.90;;;;;;;13.57;74.79;98248.25;4931791;28;20710;-51
2022/09/13 00:12:31;;;;;;;4.07;0.97;;;;;;;13.61;75.27;98233.81;4927584;28;20603;-50
2022/09/13 00:14:58;;;;;;;2.60;0.93;;;;;;;13.54;75.88;98230.28;4912273;28;20794;-50
2022/09/13 00:17:26;;;;;;;2.37;1.20;;;;;;;13.53;76.04;98218.16;4913314;29;20243;-49
2022/09/13 00:19:52;;;;;;;1.50;1.07;;;;;;;13.57;73.52;98214.97;4932283;28;20264;-48
2022/09/13 00:22:19;;;;;;;4.07;1.10;;;;;;;13.69;75.75;98209.28;4934728;28;20243;-48
2022/09/13 00:24:45;;;;;;;4.50;1.03;;;;;;;13.55;75.53;98211.72;4935260;29;20382;-48
2022/09/13 00:27:12;;;;;;;1.50;0.87;;;;;;;13.55;74.39;98203.84;4932090;28;20566;-48
2022/09/13 00:29:39;;;;;;;3.10;1.03;;;;;;;13.56;74.35;98207.31;4916513;28;20242;-49
2022/09/13 00:32:07;;;;;;;0.90;0.90;;;;;;;13.52;76.43;98216.53;4933668;28;20241;-49
2022/09/13 00:34:33;;;;;;;1.10;0.97;;;;;;;13.47;77.84;98208.38;4935090;28;20251;-49
2022/09/13 00:37:00;;;;;;;0.90;0.80;;;;;;;13.51;76.43;98201.78;4932081;28;20289;-49
2022/09/13 00:39:27;;;;;;;3.20;0.93;;;;;;;13.50;75.58;98200.94;4934594;29;20244;-49
2022/09/13 00:41:54;;;;;;;3.80;0.90;;;;;;;13.46;75.27;98199.69;4934780;28;20325;-49
2022/09/13 00:45:03;;;;;;;1.20;0.80;;;;;;;13.40;75.66;98206.44;4930583;29;20242;-49
2022/09/13 00:47:39;;;;;;;4.17;1.00;;;;;;;13.51;76.17;98201.78;4912343;28;20645;-49
2022/09/13 00:50:14;;;;;;;2.63;1.10;;;;;;;13.55;79.96;98205.69;4931922;28;20234;-49
2022/09/13 00:52:43;;;;;;;1.30;1.00;;;;;;;13.47;77.31;98217.03;4933333;29;20228;-49
2022/09/13 00:55:17;;;;;;;3.83;1.00;;;;;;;13.42;78.07;98214.97;4934169;28;20251;-49
2022/09/13 00:57:44;;;;;;;1.30;0.90;;;;;;;13.38;78.18;98211.06;4934457;28;20298;-51
2022/09/13 01:00:13;;;;;;;4.37;1.30;;;;;;;13.40;77.71;98211.69;4930313;29;20330;-49
2022/09/13 01:02:46;;;;;;;4.87;1.10;;;;;;;13.53;77.01;98207.66;4934604;29;20232;-49
2022/09/13 01:05:15;;;;;;;2.03;1.23;;;;;;;13.48;78.18;98207.38;4932367;29;20238;-48
2022/09/13 01:07:42;;;;;;;2.37;1.10;;;;;;;13.45;79.13;98216.41;4936283;29;20591;-49
2022/09/13 01:10:10;;;;;;;1.23;1.10;;;;;;;13.42;79.43;98220.22;4934509;28;20297;-49
2022/09/13 01:12:43;;;;;;;1.30;1.00;;;;;;;13.47;82.80;98224.13;4938112;29;20288;-48
2022/09/13 01:15:10;;;;;;;2.53;1.30;;;;;;;13.41;83.67;98238.69;4934850;29;20238;-49
2022/09/13 01:17:38;;;;;;;1.73;1.30;;;;;;;13.47;83.33;98230.16;4936598;29;20615;-48
2022/09/13 01:20:10;;;;;;;3.93;1.13;;;;;;;13.42;83.80;98235.13;4937804;28;20227;-48
2022/09/13 01:23:00;;;;;;;6.40;1.00;;;;;;;13.41;82.93;98239.56;4939493;28;20242;-48
2022/09/13 01:25:50;;;;;;;2.30;1.30;;;;;;;13.29;83.18;98241.75;4935714;29;20632;-49
2022/09/13 01:28:37;;;;;;;2.47;1.20;;;;;;;13.24;84.26;98249.38;4937587;29;20235;-49
2022/09/13 01:31:08;;;;;;;2.23;1.10;;;;;;;13.21;84.54;98247.09;4938158;28;20283;-49
2022/09/13 01:33:48;;;;;;;1.33;1.20;;;;;;;13.18;85.00;98250.06;4938299;28;20239;-49
2022/09/13 01:36:31;;;;;;;5.00;1.10;;;;;;;13.13;85.21;98253.19;4935958;28;20238;-49
2022/09/13 01:39:03;;;;;;;3.83;1.40;;;;;;;13.22;84.02;98250.50;4940144;29;20607;-49
2022/09/13 01:41:47;;;;;;;3.63;1.70;;;;;;;13.17;83.77;98256.31;4936178;29;20770;-49
2022/09/13 01:44:26;;;;;;;4.03;1.37;;;;;;;13.11;84.36;98252.56;4935914;28;20237;-49
2022/09/13 01:47:03;;;;;;;2.20;1.27;;;;;;;13.08;85.38;98257.34;4936944;29;20509;-49
2022/09/13 01:49:41;;;;;;;4.20;1.47;;;;;;;13.12;85.67;98256.00;4936678;29;20713;-48
2022/09/13 01:52:14;;;;;;;2.90;1.20;;;;;;;13.17;85.33;98271.19;4937711;28;20222;-48
2022/09/13 01:54:51;;;;;;;3.20;1.20;;;;;;;13.21;86.26;98259.38;4940429;29;20231;-48
2022/09/13 01:57:27;;;;;;;4.13;1.60;;;;;;;13.10;86.93;98266.66;4936377;29;20238;-48
2022/09/13 01:59:59;;;;;;;3.10;1.17;;;;;;;13.01;86.64;98270.31;4936506;28;20234;-49
2022/09/13 02:02:31;;;;;;;2.80;1.33;;;;;;;13.00;87.08;98268.69;4934722;29;20246;-48
2022/09/13 02:05:04;;;;;;;5.23;1.50;;;;;;;12.92;87.21;98277.44;4921284;29;20317;-49
2022/09/13 02:07:35;;;;;;;4.23;1.53;;;;;;;12.92;87.50;98281.84;4920696;29;20584;-48
2022/09/13 02:10:08;;;;;;;3.00;1.70;;;;;;;12.85;87.61;98281.75;4933848;29;20243;-49
2022/09/13 02:12:37;;;;;;;4.07;1.40;;;;;;;12.78;87.89;98283.44;4937916;29;20242;-49
2022/09/13 02:15:10;;;;;;;2.33;1.70;;;;;;;12.77;88.70;98276.56;4932300;29;20786;-48
2022/09/13 02:17:41;;;;;;;1.37;1.27;;;;;;;12.69;89.78;98278.25;4939490;28;20289;-49
2022/09/13 02:20:15;;;;;;;4.87;1.47;;;;;;;12.71;88.73;98272.84;4936197;29;20230;-48
2022/09/13 02:23:05;;;;;;;3.70;1.47;;;;;;;12.69;89.30;98266.97;4935945;29;20237;-48
2022/09/13 02:25:36;;;;;;;3.00;1.40;;;;;;;12.66;89.16;98257.63;4937346;29;20628;-49
2022/09/13 02:28:07;;;;;;;3.87;1.43;;;;;;;12.61;89.37;98254.72;4937954;29;20238;-48
2022/09/13 02:30:40;;;;;;;7.37;1.63;;;;;;;12.59;90.32;98245.41;4939625;28;20654;-48
2022/09/13 02:33:15;;;;;;;3.10;1.40;;;;;;;12.64;90.17;98233.44;4933623;29;20649;-48
2022/09/13 02:35:49;;;;;;;6.77;2.10;;;;;;;12.57;91.22;98229.88;4934702;29;20226;-48
2022/09/13 02:38:20;;;;;;;3.23;1.30;;;;;;;12.53;91.11;98236.44;4935615;29;20586;-48
2022/09/13 02:40:56;;;;;;;5.20;1.40;;;;;;;12.48;91.55;98231.72;4942088;28;20601;-49
2022/09/13 02:43:27;;;;;;;2.73;1.63;;;;;;;12.56;92.76;98233.47;4938722;29;20330;-51
2022/09/13 02:46:08;;;;;;;3.40;1.50;;;;;;;12.65;91.50;98223.78;4941048;28;20230;-49
2022/09/13 02:48:48;;;;;;;7.43;1.93;;;;;;;12.65;91.31;98226.41;4937288;28;20244;-49
2022/09/13 02:51:23;;;;;;;3.87;1.60;;;;;;;12.63;90.55;98231.78;4933407;28;20227;-49
2022/09/13 02:53:58;;;;;;;2.73;1.23;;;;;;;12.66;90.67;98225.41;4936041;29;20651;-48
2022/09/13 02:56:33;;;;;;;1.73;1.30;;;;;;;12.64;90.93;98222.16;4935606;29;20241;-49
2022/09/13 02:59:05;;;;;;;4.37;1.43;;;;;;;12.60;90.98;98233.97;4932292;29;20590;-49
2022/09/13 03:04:08;;;;;;;2.27;1.23;;;;;;;12.61;92.38;98223.31;5512004;23;20761;-49
2022/09/13 03:06:35;;;;;;;3.07;1.33;;;;;;;12.64;91.63;98211.69;4917797;29;20247;-50
2022/09/13 03:09:05;;;;;;;3.80;1.20;;;;;;;12.60;92.27;98216.44;4914221;29;20259;-49
2022/09/13 03:11:47;;;;;;;4.37;1.40;;;;;;;12.73;91.40;98218.47;4918979;29;20281;-48
2022/09/13 03:14:24;;;;;;;4.70;1.40;;;;;;;12.65;92.20;98214.09;4915780;28;20234;-48
2022/09/13 03:17:08;;;;;;;5.47;1.23;;;;;;;12.59;91.78;98208.78;4921133;28;20302;-49
2022/09/13 03:20:14;;;;;;;2.27;1.23;;;;;;;12.60;92.36;98192.88;4914892;28;20234;-48
2022/09/13 03:23:10;;;;;;;1.30;0.97;;;;;;;12.77;91.84;98198.00;4888638;28;20241;-49
2022/09/13 03:26:03;;;;;;;4.17;1.50;;;;;;;12.73;92.80;98197.50;4891411;29;20243;-49
2022/09/13 03:28:37;;;;;;;6.03;1.60;;;;;;;12.73;92.67;98186.22;4916686;28;20322;-48
2022/09/13 03:31:09;;;;;;;2.77;1.30;;;;;;;12.79;92.83;98199.44;4914264;28;20259;-49
2022/09/13 03:33:44;;;;;;;2.87;1.20;;;;;;;12.84;92.61;98193.69;4920466;28;20236;-49
2022/09/13 03:36:17;;;;;;;6.80;1.30;;;;;;;12.88;92.93;98188.88;4913126;28;20235;-49
2022/09/13 03:38:54;;;;;;;3.17;1.30;;;;;;;12.93;93.41;98182.16;4920028;28;20333;-49
2022/09/13 03:41:27;;;;;;;3.07;1.43;;;;;;;12.97;93.45;98188.66;4918642;28;20291;-52
2022/09/13 03:43:58;;;;;;;4.07;1.20;;;;;;;13.07;93.20;98177.13;4917731;28;20314;-49
2022/09/13 03:46:30;;;;;;;3.47;1.13;;;;;;;13.25;92.31;98179.41;4916233;29;20272;-51
2022/09/13 03:49:00;;;;;;;5.13;1.50;;;;;;;13.22;92.94;98180.59;4917416;28;20234;-49
2022/09/13 03:51:28;;;;;;;3.83;1.10;;;;;;;13.28;92.38;98181.66;4921163;29;20256;-49
2022/09/13 03:53:59;;;;;;;2.63;1.67;;;;;;;13.35;92.24;98203.53;4918093;28;20321;-48
2022/09/13 03:56:26;;;;;;;2.13;1.33;;;;;;;13.39;91.39;98198.75;4915771;28;20267;-48
2022/09/13 03:58:53;;;;;;;2.17;1.37;;;;;;;13.42;90.71;98198.41;4909530;29;20731;-48
2022/09/13 04:01:21;;;;;;;3.53;1.40;;;;;;;13.48;90.84;98197.69;4913753;28;20244;-48
2022/09/13 04:03:48;;;;;;;3.83;1.40;;;;;;;13.47;90.85;98190.03;4918844;28;20267;-49
2022/09/13 04:06:14;;;;;;;3.40;1.30;;;;;;;13.52;90.88;98187.69;4916125;29;20235;-48
2022/09/13 04:08:43;;;;;;;1.40;1.23;;;;;;;13.53;91.02;98178.81;4918666;28;20259;-48
2022/09/13 04:11:10;;;;;;;1.80;1.17;;;;;;;13.55;92.25;98176.81;4912477;29;20667;-48
2022/09/13 04:13:55;;;;;;;20.43;1.87;;;;;;;13.58;91.93;98166.78;4922029;28;20786;-50
2022/09/13 04:16:21;;;;;;;2.47;1.30;;;;;;;13.59;92.09;98175.47;4915582;28;20755;-48
2022/09/13 04:18:48;;;;;;;8.37;1.57;;;;;;;13.59;92.70;98178.09;4917873;28;20248;-48
2022/09/13 04:21:15;;;;;;;3.57;1.30;;;;;;;13.61;92.72;98170.03;4915675;28;20237;-49
2022/09/13 04:23:43;;;;;;;3.27;1.43;;;;;;;13.64;92.86;98181.00;4915837;29;20340;-49
2022/09/13 04:26:10;;;;;;;4.67;1.53;;;;;;;13.72;93.64;98191.38;4920607;28;20273;-49
2022/09/13 04:28:37;;;;;;;2.80;1.33;;;;;;;13.67;93.49;98211.28;4917137;28;20304;-48
2022/09/13 04:31:04;;;;;;;2.63;1.57;;;;;;;13.71;93.41;98236.97;4917849;28;20264;-49
2022/09/13 04:33:31;;;;;;;2.07;1.70;;;;;;;13.80;92.71;98247.34;4921089;28;20256;-49
2022/09/13 04:35:59;;;;;;;3.63;1.47;;;;;;;13.85;90.51;98252.88;4913215;28;20221;-48
2022/09/13 04:38:25;;;;;;;4.17;1.80;;;;;;;13.87;90.06;98246.47;4913372;28;20625;-49
2022/09/13 04:40:54;;;;;;;4.37;2.10;;;;;;;13.79;89.83;98243.09;4916049;29;20290;-49
2022/09/13 04:43:21;;;;;;;2.20;1.97;;;;;;;13.72;89.42;98238.59;4912762;28;20248;-49
2022/09/13 04:45:48;;;;;;;4.60;1.83;;;;;;;13.65;89.91;98240.31;4915699;28;20296;-49
2022/09/13 04:48:15;;;;;;;2.80;1.90;;;;;;;13.60;89.80;98249.69;4914914;28;20232;-49
2022/09/13 04:50:42;;;;;;;2.87;1.90;;;;;;;13.55;90.45;98250.25;4917793;28;20237;-49
2022/09/13 04:53:08;;;;;;;4.67;1.93;;;;;;;13.51;90.89;98247.16;4913981;28;20244;-49
2022/09/13 04:55:35;;;;;;;2.03;1.80;;;;;;;13.42;91.42;98256.91;4916735;28;20239;-49
2022/09/13 04:58:03;;;;;;;4.03;1.93;;;;;;;13.42;91.13;98262.16;4914772;28;20255;-48
2022/09/13 05:00:30;;;;;;;2.13;1.90;;;;;;;13.41;91.63;98254.44;4916502;28;20238;-48
2022/09/13 05:02:57;;;;;;;3.23;2.67;;;;;;;13.35;91.56;98255.16;4915209;29;20325;-51
2022/09/13 05:05:24;;;;;;;4.00;2.47;;;;;;;13.31;91.78;98248.63;4915323;28;20250;-48
2022/09/13 05:07:51;;;;;;;4.60;2.13;;;;;;;13.35;91.85;98258.59;4913807;29;20240;-48
2022/09/13 05:10:18;;;;;;;4.20;2.03;;;;;;;13.36;92.24;98260.22;4914003;28;20584;-50
2022/09/13 05:12:45;;;;;;;2.33;2.00;;;;;;;13.33;92.91;98254.50;4919778;28;20232;-49
2022/09/13 05:15:13;;;;;;;2.50;1.87;;;;;;;13.32;92.84;98247.63;4911297;28;20319;-49
2022/09/13 05:17:39;;;;;;;2.40;2.00;;;;;;;13.30;92.79;98253.06;4915819;29;20609;-50
2022/09/13 05:20:08;;;;;;;6.77;1.80;;;;;;;13.34;94.30;98256.97;4915539;28;20241;-49
2022/09/13 05:22:35;;;;;;;3.67;1.80;;;;;;;13.34;94.44;98238.63;4915794;28;20715;-49
2022/09/13 05:25:01;;;;;;;2.83;2.00;;;;;;;13.35;94.60;98234.16;4915515;28;20296;-49
2022/09/13 05:27:28;;;;;;;3.77;1.70;;;;;;;13.40;94.58;98240.53;4915411;28;20343;-51
2022/09/13 05:29:55;;;;;;;2.60;1.67;;;;;;;13.39;94.90;98236.28;4915194;29;20798;-48
2022/09/13 05:32:23;;;;;;;3.77;2.00;;;;;;;13.38;94.96;98244.31;4917464;28;20251;-48
2022/09/13 05:34:49;;;;;;;4.13;1.47;;;;;;;13.38;95.51;98244.31;4917652;28;20282;-48
2022/09/13 05:37:16;;;;;;;5.53;1.77;;;;;;;13.41;96.24;98243.94;4916634;28;20270;-49
2022/09/13 05:39:42;;;;;;;1.87;1.40;;;;;;;13.45;95.11;98247.06;4919853;28;20799;-48
2022/09/13 05:42:09;;;;;;;4.83;1.90;;;;;;;13.47;95.54;98252.94;4914352;28;20295;-48
2022/09/13 05:44:36;;;;;;;2.33;1.90;;;;;;;13.48;95.03;98258.00;4917359;28;20275;-48
2022/09/13 05:47:03;;;;;;;9.33;6.53;;;;;;;13.53;95.17;98263.53;4913207;28;20232;-49
2022/09/13 05:49:31;;;;;;;7.30;6.50;;;;;;;13.54;95.52;98266.97;4916359;29;20738;-48
2022/09/13 05:51:58;;;;;;;4.03;2.70;;;;;;;13.60;95.20;98275.91;4913200;28;20236;-49
2022/09/13 05:54:24;;;;;;;2.20;2.00;;;;;;;13.62;95.35;98276.56;4915458;28;20296;-48
2022/09/13 05:56:53;;;;;;;4.10;2.00;;;;;;;13.69;94.76;98270.44;4913561;28;20287;-48
2022/09/13 05:59:19;;;;;;;5.77;2.57;;;;;;;13.70;94.83;98266.81;4910600;28;20410;-48
2022/09/13 06:01:47;;;;;;;1.60;1.50;;;;;;;13.71;94.30;98268.44;4916529;28;20232;-48
2022/09/13 06:04:13;;;;;;;3.80;1.60;;;;;;;13.80;94.50;98265.72;4916595;28;20842;-49
2022/09/13 06:06:41;;;;;;;3.17;1.60;;;;;;;13.82;93.63;98266.34;4922458;28;20287;-49
2022/09/13 06:09:11;;;;;;;5.57;2.07;;;;;;;13.87;93.68;98258.75;4916303;28;20216;-49
2022/09/13 06:11:37;;;;;;;2.17;1.83;;;;;;;13.90;94.73;98261.00;4916955;29;20360;-49
2022/09/13 06:14:04;;;;;;;4.73;1.90;;;;;;;13.96;94.42;98257.66;4916051;28;20241;-49
2022/09/13 06:16:31;;;;;;;4.37;1.70;;;;;;;14.02;94.71;98248.25;4920576;28;20283;-48
2022/09/13 06:18:57;;;;;;;9.47;2.13;;;;;;;14.08;94.42;98246.72;4913465;29;20641;-49
2022/09/13 06:21:24;;;;;;;3.77;1.47;;;;;;;14.16;93.76;98238.72;4918921;28;20240;-49
2022/09/13 06:23:53;;;;;;;3.67;1.43;;;;;;;14.20;93.75;98237.38;4922521;28;20303;-49
2022/09/13 06:26:22;;;;;;;1.40;1.30;;;;;;;14.26;93.35;98247.13;4917703;28;20263;-49
2022/09/13 06:28:49;;;;;;;1.80;1.47;;;;;;;14.42;92.80;98240.03;4920812;29;20324;-49
2022/09/13 06:31:17;;;;;;;1.97;1.57;;;;;;;14.47;93.96;98241.09;4916223;28;20233;-49
2022/09/13 06:33:45;;;;;;;3.00;1.40;;;;;;;14.52;94.35;98237.94;4920492;28;20776;-49
2022/09/13 06:36:14;;;;;;;3.60;1.47;;;;;;;14.59;94.19;98236.19;4916400;28;20236;-49
2022/09/13 06:38:41;;;;;;;2.47;1.40;;;;;;;14.73;95.15;98239.78;4921271;28;20235;-50
2022/09/13 06:41:11;;;;;;;4.23;1.63;;;;;;;14.80;94.88;98231.16;4918178;28;20260;-50
2022/09/13 06:43:38;;;;;;;2.20;1.40;;;;;;;14.88;94.62;98226.56;4920816;28;20327;-49
2022/09/13 06:46:07;;;;;;;2.10;1.43;;;;;;;14.97;93.81;98229.06;4918644;28;20787;-49
2022/09/13 06:48:35;;;;;;;2.60;1.23;;;;;;;15.09;92.80;98229.41;4922063;29;20700;-49
2022/09/13 06:51:04;;;;;;;2.60;1.50;;;;;;;15.21;91.50;98217.38;4913300;28;20297;-51
2022/09/13 06:53:32;;;;;;;2.20;1.50;;;;;;;15.35;90.94;98210.38;4916911;29;20249;-49
2022/09/13 06:56:01;;;;;;;3.30;1.50;;;;;;;15.47;89.64;98208.00;4917266;28;20241;-51
2022/09/13 06:58:30;;;;;;;6.93;1.50;;;;;;;15.60;88.33;98199.41;4920377;28;20348;-49
2022/09/13 07:01:08;;;;;;;3.30;1.47;;;;;;;15.78;88.43;98204.13;4918175;28;20238;-49
2022/09/13 07:03:35;;;;;;;1.67;1.33;;;;;;;15.98;87.96;98198.19;4915257;28;20256;-52
2022/09/13 07:06:07;;;;;;;1.33;1.23;;;;;;;16.22;86.33;98181.06;4914580;28;20360;-52
2022/09/13 07:08:34;;;;;;;3.77;1.43;;;;;;;16.44;84.44;98183.53;4916875;29;20690;-49
2022/09/13 07:11:01;;;;;;;2.17;1.30;;;;;;;16.76;84.82;98181.16;4916522;28;20243;-49
2022/09/13 07:13:27;;;;;;;4.50;1.33;;;;;;;17.08;82.97;98184.00;4919867;28;20243;-49
2022/09/13 07:15:56;;;;;;;9.07;1.43;;;;;;;17.46;82.41;98177.28;4919992;28;20250;-49
2022/09/13 07:18:22;;;;;;;4.97;1.47;;;;;;;17.82;81.02;98184.69;4914576;28;20241;-49
2022/09/13 07:20:49;;;;;;;2.90;1.10;;;;;;;18.14;80.06;98176.84;4919801;28;20237;-49
2022/09/13 07:23:16;;;;;;;10.37;2.40;;;;;;;18.40;81.10;98190.94;4913264;29;20611;-50
2022/09/13 07:25:42;;;;;;;7.73;1.90;;;;;;;18.67;79.60;98189.94;4919318;28;20240;-50
2022/09/13 07:28:09;;;;;;;2.67;1.30;;;;;;;18.89;77.06;98193.03;4915314;28;20616;-49
2022/09/13 07:30:36;;;;;;;4.30;1.43;;;;;;;19.00;72.29;98195.03;4921085;28;20742;-50
2022/09/13 07:33:04;;;;;;;2.77;1.30;;;;;;;19.11;71.72;98205.91;4917446;28;20290;-50
2022/09/13 07:35:30;;;;;;;3.10;1.40;;;;;;;19.21;70.00;98200.13;4917080;28;20254;-49
2022/09/13 07:37:57;;;;;;;2.03;1.57;;;;;;;19.19;69.21;98192.41;4917522;29;20290;-50
2022/09/13 07:40:24;;;;;;;3.07;2.00;;;;;;;19.17;69.29;98189.16;4917760;28;20245;-49
2022/09/13 07:42:51;;;;;;;5.23;1.83;;;;;;;19.17;70.28;98197.91;4918565;28;20282;-50
2022/09/13 07:45:17;;;;;;;3.03;1.70;;;;;;;19.18;71.66;98209.31;4917335;28;20759;-50
2022/09/13 07:47:44;;;;;;;3.17;1.20;;;;;;;19.27;70.88;98205.34;4914946;29;20294;-52
2022/09/13 07:50:12;;;;;;;2.50;1.67;;;;;;;19.32;70.12;98212.66;4916012;28;20237;-49
2022/09/13 07:52:39;;;;;;;4.67;2.23;;;;;;;19.14;70.16;98222.16;4915490;28;20635;-50
2022/09/13 07:55:06;;;;;;;2.47;2.03;;;;;;;19.17;70.86;98231.50;4915033;28;21119;-52
2022/09/13 07:57:33;;;;;;;4.10;2.50;;;;;;;19.11;71.57;98219.13;4917570;28;20228;-49
2022/09/13 08:00:00;;;;;;;4.30;2.37;;;;;;;19.32;70.96;98210.00;4917996;28;20652;-51
2022/09/13 08:02:27;;;;;;;5.37;2.00;;;;;;;19.42;70.54;98204.19;4914950;28;20318;-49
2022/09/13 08:04:54;;;;;;;2.40;2.03;;;;;;;19.57;69.34;98203.88;4918102;28;20271;-50
2022/09/13 08:07:22;;;;;;;7.93;1.87;;;;;;;19.79;68.91;98190.16;4910201;28;20240;-52
2022/09/13 08:09:49;;;;;;;6.47;2.20;;;;;;;19.91;69.19;98181.31;4916009;29;20697;-49
2022/09/13 08:12:15;;;;;;;3.67;2.30;;;;;;;20.00;69.48;98170.41;4913972;28;20266;-50
2022/09/13 08:14:42;;;;;;;4.30;2.43;;;;;;;20.09;69.32;98162.94;4919030;28;20228;-49
2022/09/13 08:17:09;;;;;;;5.20;2.03;;;;;;;20.16;67.83;98153.84;4912980;28;20652;-50
2022/09/13 08:19:36;;;;;;;5.23;1.80;;;;;;;20.21;67.18;98161.16;4918836;28;20233;-51
2022/09/13 08:22:02;;;;;;;2.10;1.40;;;;;;;20.37;66.48;98159.69;4918351;28;20650;-50
2022/09/13 08:24:31;;;;;;;2.13;1.30;;;;;;;20.54;66.03;98167.81;4921333;28;20294;-49
2022/09/13 08:26:58;;;;;;;4.10;1.70;;;;;;;20.70;65.70;98168.16;4914382;28;20243;-52
2022/09/13 08:29:25;;;;;;;2.03;1.40;;;;;;;20.81;65.23;98170.06;4918430;28;20246;-49
2022/09/13 08:31:51;;;;;;;2.77;1.10;;;;;;;20.91;65.35;98164.22;4914941;28;20334;-52
2022/09/13 08:34:20;;;;;;;1.87;1.20;;;;;;;21.13;64.03;98176.91;4911543;28;20258;-50
2022/09/13 08:36:46;;;;;;;2.07;1.20;;;;;;;21.41;62.39;98188.66;4915035;29;20268;-50
2022/09/13 08:39:13;;;;;;;3.60;2.00;;;;;;;21.69;59.12;98193.28;4915152;28;20701;-50
2022/09/13 08:42:01;;;;;;;3.37;1.87;;;;;;;21.81;59.84;98203.88;4917385;28;20233;-51
2022/09/13 08:44:30;;;;;;;2.23;2.00;;;;;;;21.63;61.73;98212.81;4914948;29;20237;-49
2022/09/13 08:47:04;;;;;;;2.80;1.90;;;;;;;21.85;59.70;98212.16;4916909;29;20321;-49
2022/09/13 08:49:34;;;;;;;2.10;1.83;;;;;;;21.99;59.94;98210.88;4916358;28;20332;-48
2022/09/13 08:52:06;;;;;;;6.07;1.97;;;;;;;22.05;58.17;98220.56;4913313;28;20227;-48
2022/09/13 08:54:33;;;;;;;4.87;1.90;;;;;;;21.97;57.78;98215.59;4917863;28;20608;-48
2022/09/13 08:57:09;;;;;;;5.30;1.60;;;;;;;21.66;58.41;98221.09;4915832;28;20232;-48
2022/09/13 08:59:50;;;;;;;6.57;1.80;;;;;;;22.01;58.69;98222.06;4920805;28;20228;-48
2022/09/13 09:02:30;;;;;;;2.90;1.80;;;;;;;22.14;55.91;98230.81;4915266;28;20230;-50
2022/09/13 09:05:03;;;;;;;3.83;1.77;;;;;;;22.05;57.18;98236.50;4918625;28;20235;-50
2022/09/13 09:07:35;;;;;;;3.50;1.90;;;;;;;22.18;56.99;98243.41;4915891;28;20234;-49
2022/09/13 09:10:06;;;;;;;5.43;2.23;;;;;;;22.21;56.40;98263.38;4916076;28;20309;-49
2022/09/13 09:12:42;;;;;;;3.33;2.30;;;;;;;22.15;56.52;98277.63;4919145;29;20264;-49
2022/09/13 09:15:16;;;;;;;6.30;2.00;;;;;;;21.94;57.01;98282.50;4917097;28;20250;-48
2022/09/13 09:17:50;;;;;;;4.43;2.40;;;;;;;21.96;56.08;98291.06;4916125;28;20664;-50
2022/09/13 09:20:24;;;;;;;2.53;1.80;;;;;;;22.16;56.50;98296.00;4914290;28;20246;-48
2022/09/13 09:22:53;;;;;;;2.43;1.90;;;;;;;22.23;56.33;98290.53;4917220;29;20234;-49
2022/09/13 09:25:21;;;;;;;8.30;2.17;;;;;;;22.20;56.42;98285.69;4914446;28;20242;-50
2022/09/13 09:27:49;;;;;;;8.53;2.17;;;;;;;22.25;56.64;98275.16;4919003;28;20284;-48
2022/09/13 09:30:16;;;;;;;4.17;2.03;;;;;;;22.24;56.34;98268.22;4919562;28;20237;-49
2022/09/13 09:33:07;;;;;;;5.57;2.10;;;;;;;22.23;56.53;98263.97;4915262;28;20288;-49
2022/09/13 09:35:50;;;;;;;3.33;2.17;;;;;;;22.45;56.64;98281.97;4913996;29;20238;-50
2022/09/13 09:38:40;;;;;;;4.97;2.40;;;;;;;22.51;55.86;98273.03;4913924;28;20232;-51
2022/09/13 09:41:25;;;;;;;2.33;2.10;;;;;;;22.52;55.98;98286.06;4915471;28;20228;-49
2022/09/13 09:43:59;;;;;;;7.47;2.50;;;;;;;22.41;56.12;98276.25;4920703;29;20709;-49
2022/09/13 09:46:32;;;;;;;5.23;2.20;;;;;;;22.59;56.37;98282.47;4916052;28;20300;-49
2022/09/13 09:52:09;;;;;;;3.03;2.20;;;;;;;23.12;55.25;98291.09;4915071;28;20315;-49
2022/09/13 09:54:37;;;;;;;5.63;2.37;;;;;;;23.30;54.37;98276.78;4917703;28;20705;-49
2022/09/13 09:57:05;;;;;;;2.77;2.00;;;;;;;23.49;53.96;98276.50;4915346;29;20240;-49
2022/09/13 09:59:34;;;;;;;4.50;2.20;;;;;;;23.43;55.21;98270.31;4919680;29;20291;-49
2022/09/13 10:02:18;;;;;;;2.97;1.80;;;;;;;23.67;53.66;98262.94;4915074;28;20308;-49
2022/09/13 10:04:55;;;;;;;4.73;2.10;;;;;;;23.89;52.77;98246.16;4921966;29;20735;-51
2022/09/13 10:07:28;;;;;;;5.20;1.77;;;;;;;23.88;52.53;98244.53;4917056;28;20240;-49
2022/09/13 10:10:00;;;;;;;2.73;1.87;;;;;;;23.98;52.92;98236.69;4921857;28;20250;-49
2022/09/13 10:12:30;;;;;;;3.30;1.70;;;;;;;24.22;53.24;98227.63;4919006;29;20312;-49
2022/09/13 10:15:14;;;;;;;6.13;1.80;;;;;;;24.42;53.54;98217.19;4922770;28;20693;-49
2022/09/13 10:17:41;;;;;;;2.03;1.70;;;;;;;24.73;51.28;98212.16;4914198;29;20231;-50
2022/09/13 10:20:21;;;;;;;3.77;2.10;;;;;;;24.85;50.17;98206.63;4917518;28;20243;-48
2022/09/13 10:23:10;;;;;;;6.53;2.30;;;;;;;25.20;48.84;98212.50;4919186;29;20240;-51
2022/09/13 10:25:39;;;;;;;8.40;1.83;;;;;;;25.29;49.16;98213.63;4914671;29;20285;-49
2022/09/13 10:28:12;;;;;;;6.20;2.23;;;;;;;25.42;48.78;98222.25;4914484;28;20243;-49
2022/09/13 10:30:44;;;;;;;2.90;1.60;;;;;;;25.65;47.81;98223.72;4920066;29;20764;-49
2022/09/13 10:33:25;;;;;;;4.00;1.90;;;;;;;25.73;47.47;98222.44;4916377;28;20243;-49
2022/09/13 10:35:55;;;;;;;2.77;1.90;;;;;;;25.89;47.61;98237.50;4919701;28;20240;-50
2022/09/13 10:38:28;;;;;;;3.53;1.83;;;;;;;26.04;47.65;98235.91;4915984;28;20233;-49
2022/09/13 10:40:55;;;;;;;4.00;1.90;;;;;;;25.95;47.08;98232.97;4921737;28;20308;-48
2022/09/13 10:43:24;;;;;;;2.73;2.03;;;;;;;25.70;49.12;98220.28;4915227;28;20301;-49
2022/09/13 10:45:52;;;;;;;5.57;2.03;;;;;;;25.88;48.65;98213.69;4920251;28;20244;-49
2022/09/13 10:48:20;;;;;;;5.80;1.95;;;;;;;25.61;49.56;98220.78;4911274;29;20445;-50
2022/09/13 10:51:08;;;;;;;2.87;2.10;;;;;;;25.36;50.10;98218.75;4919589;28;20235;-49
2022/09/13 10:53:40;;;;;;;2.57;1.90;;;;;;;25.63;50.30;98228.53;4911337;28;20236;-49
2022/09/13 10:56:20;;;;;;;8.10;1.77;;;;;;;25.46;50.27;98229.50;4912799;28;20237;-50
2022/09/13 10:58:46;;;;;;;2.30;1.90;;;;;;;25.41;50.38;98225.97;4922124;28;20247;-49
2022/09/13 11:01:33;;;;;;;4.67;1.97;;;;;;;25.35;51.23;98227.81;4913754;29;20247;-49
2022/09/13 11:04:38;;;;;;;4.53;2.10;;;;;;;25.70;51.54;98220.28;4916225;28;20266;-51
2022/09/13 11:07:26;;;;;;;4.07;1.97;;;;;;;25.52;51.79;98227.69;4918329;28;20288;-49
2022/09/13 11:10:01;;;;;;;3.90;1.60;;;;;;;25.34;52.29;98226.22;4917240;28;20249;-50
2022/09/13 11:12:34;;;;;;;7.17;2.37;;;;;;;25.25;52.34;98220.53;4916915;29;20712;-50
2022/09/13 11:15:14;;;;;;;4.60;2.20;;;;;;;25.19;52.55;98227.72;4916515;28;20230;-50
2022/09/13 11:18:06;;;;;;;3.70;1.87;;;;;;;25.03;51.64;98236.69;4920752;28;20308;-50
2022/09/13 11:20:45;;;;;;;2.67;1.60;;;;;;;25.50;49.46;98224.47;4914680;29;20563;-50
2022/09/13 11:23:43;;;;;;;3.80;1.93;;;;;;;24.95;52.24;98223.81;4911850;29;20638;-49
2022/09/13 11:26:25;;;;;;;8.07;2.23;;;;;;;24.83;52.51;98214.09;4914942;29;20232;-51
2022/09/13 11:29:05;;;;;;;5.70;2.00;;;;;;;25.34;52.03;98216.31;4919802;28;20334;-50
2022/09/13 11:31:42;;;;;;;3.53;1.90;;;;;;;25.45;50.93;98209.19;4910918;29;20733;-50
2022/09/13 11:34:24;;;;;;;4.80;1.93;;;;;;;25.75;48.73;98202.41;4913396;28;20254;-49
2022/09/13 11:37:06;;;;;;;3.67;1.80;;;;;;;25.91;48.38;98203.28;4917353;29;20259;-51
2022/09/13 11:39:38;;;;;;;2.90;1.60;;;;;;;26.22;46.86;98206.06;4913092;29;20243;-50
2022/09/13 11:42:22;;;;;;;2.23;1.50;;;;;;;26.43;46.14;98208.78;4915672;29;20242;-50
2022/09/13 11:45:14;;;;;;;4.10;1.50;;;;;;;26.64;44.34;98193.53;4920913;28;20607;-52
2022/09/13 11:48:04;;;;;;;1.60;1.40;;;;;;;26.82;43.79;98194.09;4917277;28;20228;-49
2022/09/13 11:50:42;;;;;;;1.50;1.40;;;;;;;26.73;43.45;98177.75;4919444;29;20238;-51
2022/09/13 11:53:31;;;;;;;2.23;1.30;;;;;;;26.83;44.17;98181.53;4914895;28;20233;-52
2022/09/13 11:56:02;;;;;;;3.60;1.50;;;;;;;26.84;43.43;98175.88;4920813;28;20694;-50
2022/09/13 11:58:36;;;;;;;2.17;1.00;;;;;;;26.84;42.92;98175.09;4918476;28;20231;-49
2022/09/13 12:01:07;;;;;;;5.90;1.40;;;;;;;26.96;41.53;98157.66;4914960;28;20242;-49
2022/09/13 12:03:41;;;;;;;6.27;1.20;;;;;;;27.11;41.92;98156.03;4912489;28;20332;-51